Marked Tree, Arkansas
Current Conditions -  °F | °C
As of 12:53 AM on Saturday 25 Oct 2014 (Local Time) from KJBR Reporting Station
Clear Clear  
Wind Chill: 62°   Ceiling: Unl
Heat Index: 62°   Visibility: 10mi
Dew Point: 55°   Wind: 6mph
Humidity: 78%   Direction: 240°WSW
Pressure: 30.07"   Gusts: NA
Location:  35.53°N, 90.42°W
Report Text: KJBR 250553Z AUTO 24005KT 10SM CLR 17/13 A3007 RMK AO2 SLP180 T01670128 10178 20150 402330061 55003
Loading
Personal Weather Stations






























Interactive Weather Map
Tropical Storm Tracking
New forecast layout! Learn more

10-Day Weather Forecast

Advertisements
Track Severe Weather on mobile